Time,TemperatureF,DewpointF,PressureIn,WindDirection,WindDirectionDegrees,WindSpeedMPH,WindSpeedGustMPH,Humidity,HourlyPrecipIn,Conditions,Clouds,dailyrainin,SolarRadiationWatts/m^2,SoftwareType,DateUTC
2013-06-01 00:00:00,62.4,48.7,30.05,SW,232,0.0,4.0,61,0.00,,,0.00,0.0,meteohub,2013-06-01 07:00:00,
2013-06-01 00:05:00,62.4,48.7,30.05,SW,232,0.0,3.0,61,0.00,,,0.00,0.0,meteohub,2013-06-01 07:05:00,
2013-06-01 00:11:00,62.2,49.1,30.05,SW,232,0.0,1.0,62,0.00,,,0.00,0.0,meteohub,2013-06-01 07:11:00,
2013-06-01 00:16:00,62.1,48.9,30.05,SW,232,0.0,1.0,62,0.00,,,0.00,0.0,meteohub,2013-06-01 07:16:00,
2013-06-01 00:21:00,61.9,49.1,30.05,SW,232,0.0,2.0,63,0.00,,,0.00,0.0,meteohub,2013-06-01 07:21:00,
2013-06-01 00:26:00,61.5,49.3,30.05,SSW,205,0.0,4.0,64,0.00,,,0.00,0.0,meteohub,2013-06-01 07:26:00,
2013-06-01 00:32:00,61.3,49.1,30.05,SSW,208,0.0,4.0,64,0.00,,,0.00,0.0,meteohub,2013-06-01 07:32:00,
2013-06-01 00:37:00,61.2,49.3,30.04,SW,227,3.0,4.0,65,0.00,,,0.00,0.0,meteohub,2013-06-01 07:37:00,
2013-06-01 00:42:00,61.0,49.5,30.04,SW,215,3.0,5.0,66,0.00,,,0.00,0.0,meteohub,2013-06-01 07:42:00,
2013-06-01 00:47:00,60.6,49.3,30.04,SW,225,1.0,5.0,66,0.00,,,0.00,0.0,meteohub,2013-06-01 07:47:00,
2013-06-01 00:52:00,60.6,49.6,30.04,SW,225,0.0,5.0,67,0.00,,,0.00,0.0,meteohub,2013-06-01 07:52:00,
2013-06-01 00:57:00,60.4,49.5,30.04,SW,236,2.0,4.0,67,0.00,,,0.00,0.0,meteohub,2013-06-01 07:57:00,
2013-06-01 01:02:00,60.3,49.3,30.04,SW,227,0.0,6.0,67,0.00,,,0.00,0.0,meteohub,2013-06-01 08:02:00,
2013-06-01 01:07:00,60.3,49.3,30.04,SW,233,3.0,6.0,67,0.00,,,0.00,0.0,meteohub,2013-06-01 08:07:00,
2013-06-01 01:12:00,60.3,48.9,30.05,SW,228,2.0,6.0,66,0.00,,,0.00,0.0,meteohub,2013-06-01 08:12:00,
2013-06-01 01:17:00,60.3,48.4,30.05,SW,220,5.0,5.0,65,0.00,,,0.00,0.0,meteohub,2013-06-01 08:17:00,
2013-06-01 01:22:00,60.3,48.4,30.05,SW,233,2.0,5.0,65,0.00,,,0.00,0.0,meteohub,2013-06-01 08:22:00,
2013-06-01 01:27:00,60.3,48.4,30.05,SW,232,0.0,5.0,65,0.00,,,0.00,0.0,meteohub,2013-06-01 08:27:00,
2013-06-01 01:33:00,60.3,48.4,30.05,SW,232,0.0,5.0,65,0.00,,,0.00,0.0,meteohub,2013-06-01 08:33:00,
2013-06-01 01:38:00,60.3,48.0,30.05,SW,232,0.0,5.0,64,0.00,,,0.00,0.0,meteohub,2013-06-01 08:38:00,
2013-06-01 01:43:00,60.3,48.4,30.05,SW,232,0.0,1.0,65,0.00,,,0.00,0.0,meteohub,2013-06-01 08:43:00,
2013-06-01 01:48:00,60.1,48.2,30.05,SW,232,0.0,1.0,65,0.00,,,0.00,0.0,meteohub,2013-06-01 08:48:00,
2013-06-01 01:53:00,60.1,48.2,30.05,SW,217,0.0,1.0,65,0.00,,,0.00,0.0,meteohub,2013-06-01 08:53:00,
2013-06-01 01:59:00,60.1,48.2,30.05,SW,225,0.0,3.0,65,0.00,,,0.00,0.0,meteohub,2013-06-01 08:59:00,
2013-06-01 02:04:00,59.9,48.0,30.04,SSW,211,2.0,4.0,65,0.00,,,0.00,0.0,meteohub,2013-06-01 09:04:00,
2013-06-01 02:10:00,59.7,48.0,30.04,SSW,212,0.0,3.0,65,0.00,,,0.00,0.0,meteohub,2013-06-01 09:10:00,
2013-06-01 02:15:00,59.7,48.0,30.04,SSW,212,0.0,3.0,65,0.00,,,0.00,0.0,meteohub,2013-06-01 09:15:00,
2013-06-01 02:20:00,59.5,48.2,30.04,SW,232,0.0,3.0,66,0.00,,,0.00,0.0,meteohub,2013-06-01 09:20:00,
2013-06-01 02:26:00,59.5,48.2,30.04,SW,232,0.0,3.0,66,0.00,,,0.00,0.0,meteohub,2013-06-01 09:26:00,
2013-06-01 02:31:00,59.4,48.0,30.04,SW,232,0.0,3.0,66,0.00,,,0.00,0.0,meteohub,2013-06-01 09:31:00,
2013-06-01 02:36:00,59.4,48.0,30.04,SW,232,0.0,1.0,66,0.00,,,0.00,0.0,meteohub,2013-06-01 09:36:00,
2013-06-01 02:42:00,59.2,48.2,30.04,SW,232,0.0,1.0,67,0.00,,,0.00,0.0,meteohub,2013-06-01 09:42:00,
2013-06-01 02:47:00,59.2,48.2,30.04,SW,232,0.0,1.0,67,0.00,,,0.00,0.0,meteohub,2013-06-01 09:47:00,
2013-06-01 02:52:00,59.0,48.0,30.04,SW,232,0.0,1.0,67,0.00,,,0.00,0.0,meteohub,2013-06-01 09:52:00,
2013-06-01 02:57:00,58.8,47.8,30.04,SW,232,0.0,0.0,67,0.00,,,0.00,0.0,meteohub,2013-06-01 09:57:00,
2013-06-01 03:02:00,58.6,48.2,30.04,SW,232,0.0,1.0,68,0.00,,,0.00,0.0,meteohub,2013-06-01 10:02:00,
2013-06-01 03:08:00,58.5,48.0,30.04,SW,232,0.0,1.0,68,0.00,,,0.00,0.0,meteohub,2013-06-01 10:08:00,
2013-06-01 03:13:00,58.5,48.0,30.04,SW,232,0.0,2.0,68,0.00,,,0.00,0.0,meteohub,2013-06-01 10:13:00,
2013-06-01 03:18:00,58.3,47.8,30.03,SW,232,0.0,2.0,68,0.00,,,0.00,0.0,meteohub,2013-06-01 10:18:00,
2013-06-01 03:23:00,58.3,47.8,30.03,SW,232,0.0,2.0,68,0.00,,,0.00,0.0,meteohub,2013-06-01 10:23:00,
2013-06-01 03:29:00,57.9,47.5,30.03,SW,232,0.0,0.0,68,0.00,,,0.00,0.0,meteohub,2013-06-01 10:29:00,
2013-06-01 03:34:00,57.9,47.8,30.03,SW,232,0.0,0.0,69,0.00,,,0.00,0.0,meteohub,2013-06-01 10:34:00,
2013-06-01 03:39:00,57.9,47.8,30.03,SW,232,0.0,1.0,69,0.00,,,0.00,0.0,meteohub,2013-06-01 10:39:00,
2013-06-01 03:45:00,57.9,47.8,30.03,SW,232,0.0,1.0,69,0.00,,,0.00,0.0,meteohub,2013-06-01 10:45:00,
2013-06-01 03:50:00,57.9,47.8,30.02,SW,232,0.0,1.0,69,0.00,,,0.00,0.0,meteohub,2013-06-01 10:50:00,
2013-06-01 03:55:00,57.7,47.7,30.02,SW,232,0.0,1.0,69,0.00,,,0.00,0.0,meteohub,2013-06-01 10:55:00,
2013-06-01 04:01:00,57.7,47.7,30.02,SW,232,0.0,1.0,69,0.00,,,0.00,0.0,meteohub,2013-06-01 11:01:00,
2013-06-01 04:06:00,57.7,47.7,30.02,SW,232,0.0,0.0,69,0.00,,,0.00,0.0,meteohub,2013-06-01 11:06:00,
2013-06-01 04:11:00,57.6,47.5,30.02,SW,232,0.0,0.0,69,0.00,,,0.00,0.0,meteohub,2013-06-01 11:11:00,
2013-06-01 04:17:00,57.4,47.3,30.02,SW,232,0.0,0.0,69,0.00,,,0.00,0.0,meteohub,2013-06-01 11:17:00,
2013-06-01 04:22:00,57.4,47.7,30.02,SW,232,0.0,1.0,70,0.00,,,0.00,0.0,meteohub,2013-06-01 11:22:00,
2013-06-01 04:27:00,57.2,47.5,30.02,SW,232,0.0,1.0,70,0.00,,,0.00,0.0,meteohub,2013-06-01 11:27:00,
2013-06-01 04:32:00,57.0,47.3,30.02,SW,232,0.0,1.0,70,0.00,,,0.00,0.0,meteohub,2013-06-01 11:32:00,
2013-06-01 04:37:00,57.0,47.3,30.02,SW,232,0.0,1.0,70,0.00,,,0.00,0.0,meteohub,2013-06-01 11:37:00,
2013-06-01 04:42:00,56.8,47.1,30.01,SW,232,0.0,0.0,70,0.00,,,0.00,0.0,meteohub,2013-06-01 11:42:00,
2013-06-01 04:48:00,56.8,47.1,30.01,SW,232,0.0,0.0,70,0.00,,,0.00,0.0,meteohub,2013-06-01 11:48:00,
2013-06-01 04:53:00,56.7,47.3,30.01,SW,232,0.0,1.0,71,0.00,,,0.00,0.0,meteohub,2013-06-01 11:53:00,
2013-06-01 04:58:00,56.7,47.3,30.01,SW,232,0.0,1.0,71,0.00,,,0.00,0.0,meteohub,2013-06-01 11:58:00,
2013-06-01 05:03:00,56.7,47.3,30.01,West,259,0.0,1.0,71,0.00,,,0.00,0.0,meteohub,2013-06-01 12:03:00,
2013-06-01 05:08:00,56.5,47.1,30.01,West,259,0.0,3.0,71,0.00,,,0.00,0.0,meteohub,2013-06-01 12:08:00,
2013-06-01 05:13:00,56.5,47.1,30.01,West,259,0.0,3.0,71,0.00,,,0.00,0.0,meteohub,2013-06-01 12:13:00,
2013-06-01 05:19:00,56.3,46.9,30.01,West,259,0.0,1.0,71,0.00,,,0.00,0.0,meteohub,2013-06-01 12:19:00,
2013-06-01 05:24:00,56.1,47.3,30.01,West,259,0.0,0.0,72,0.00,,,0.00,0.0,meteohub,2013-06-01 12:24:00,
2013-06-01 05:29:00,56.1,47.3,30.01,West,259,0.0,1.0,72,0.00,,,0.00,0.0,meteohub,2013-06-01 12:29:00,
2013-06-01 05:34:00,55.9,47.1,30.01,West,259,0.0,1.0,72,0.00,,,0.00,0.0,meteohub,2013-06-01 12:34:00,
2013-06-01 05:39:00,55.9,47.5,30.01,SW,215,1.0,0.0,73,0.00,,,0.00,0.0,meteohub,2013-06-01 12:39:00,
2013-06-01 05:44:00,55.8,47.3,30.02,SW,221,1.0,4.0,73,0.00,,,0.00,0.0,meteohub,2013-06-01 12:44:00,
2013-06-01 05:50:00,55.6,47.1,30.02,SSW,210,1.0,4.0,73,0.00,,,0.00,0.0,meteohub,2013-06-01 12:50:00,
2013-06-01 05:55:00,55.6,47.1,30.02,SW,224,0.0,2.0,73,0.00,,,0.00,0.0,meteohub,2013-06-01 12:55:00,
2013-06-01 06:01:00,55.4,47.3,30.03,SW,224,1.0,2.0,74,0.00,,,0.00,5.0,meteohub,2013-06-01 13:01:00,
2013-06-01 06:06:00,55.4,47.3,30.02,SW,224,0.0,2.0,74,0.00,,,0.00,7.0,meteohub,2013-06-01 13:06:00,
2013-06-01 10:13:00,74.7,46.6,30.02,SW,217,2.0,4.0,37,0.00,,,0.00,42.0,meteohub,2013-06-01 17:13:00,
2013-06-01 10:18:00,75.4,46.6,30.02,SW,217,0.0,3.0,36,0.00,,,0.00,100.0,meteohub,2013-06-01 17:18:00,
2013-06-01 10:23:00,75.7,48.4,30.01,SSW,205,2.0,3.0,38,0.00,,,0.00,134.0,meteohub,2013-06-01 17:23:00,
2013-06-01 10:28:00,76.3,46.6,30.01,SSW,205,0.0,3.0,35,0.00,,,0.00,740.0,meteohub,2013-06-01 17:28:00,
2013-06-01 10:33:00,76.8,46.4,30.01,SW,215,2.0,4.0,34,0.00,,,0.00,754.0,meteohub,2013-06-01 17:33:00,
2013-06-01 10:39:00,77.5,46.9,30.01,WSW,250,0.0,4.0,34,0.00,,,0.00,765.0,meteohub,2013-06-01 17:39:00,
2013-06-01 10:44:00,78.6,47.1,30.01,SW,217,3.0,4.0,33,0.00,,,0.00,775.0,meteohub,2013-06-01 17:44:00,
2013-06-01 10:49:00,79.7,47.3,30.01,SW,230,3.0,5.0,32,0.00,,,0.00,784.0,meteohub,2013-06-01 17:49:00,
2013-06-01 10:54:00,80.4,46.9,30.01,SW,236,0.0,5.0,31,0.00,,,0.00,515.0,meteohub,2013-06-01 17:54:00,
2013-06-01 10:59:00,81.9,47.3,30.01,SSW,213,0.0,5.0,30,0.00,,,0.00,95.0,meteohub,2013-06-01 17:59:00,
2013-06-01 11:04:00,83.1,49.3,30.01,WSW,240,0.0,4.0,31,0.00,,,0.00,53.0,meteohub,2013-06-01 18:04:00,
2013-06-01 11:10:00,84.2,49.5,30.01,SW,227,0.0,4.0,30,0.00,,,0.00,54.0,meteohub,2013-06-01 18:10:00,
2013-06-01 11:15:00,84.2,49.5,30.00,East,81,0.0,4.0,30,0.00,,,0.00,54.0,meteohub,2013-06-01 18:15:00,
2013-06-01 11:20:00,84.7,48.9,30.00,SW,215,4.0,4.0,29,0.00,,,0.00,56.0,meteohub,2013-06-01 18:20:00,
2013-06-01 11:25:00,84.9,48.2,30.00,SW,234,2.0,5.0,28,0.00,,,0.00,56.0,meteohub,2013-06-01 18:25:00,
2013-06-01 11:30:00,84.9,47.1,30.00,SW,220,1.0,6.0,27,0.00,,,0.00,58.0,meteohub,2013-06-01 18:30:00,
2013-06-01 11:35:00,85.6,48.7,30.00,WSW,242,1.0,6.0,28,0.00,,,0.00,58.0,meteohub,2013-06-01 18:35:00,
2013-06-01 11:40:00,86.7,47.7,30.00,West,280,0.0,6.0,26,0.00,,,0.00,60.0,meteohub,2013-06-01 18:40:00,
2013-06-01 11:45:00,87.1,46.9,30.00,SW,234,2.0,5.0,25,0.00,,,0.00,62.0,meteohub,2013-06-01 18:45:00,
2013-06-01 11:51:00,87.1,48.0,30.00,South,190,3.0,5.0,26,0.00,,,0.00,62.0,meteohub,2013-06-01 18:51:00,
2013-06-01 11:56:00,86.7,47.7,29.99,SW,230,2.0,6.0,26,0.00,,,0.00,63.0,meteohub,2013-06-01 18:56:00,
2013-06-01 12:01:00,86.9,47.8,29.99,SW,220,4.0,6.0,26,0.00,,,0.00,65.0,meteohub,2013-06-01 19:01:00,
2013-06-01 12:06:00,87.8,48.6,29.99,WSW,240,2.0,6.0,26,0.00,,,0.00,199.0,meteohub,2013-06-01 19:06:00,
2013-06-01 12:11:00,88.3,48.0,29.99,SW,223,3.0,7.0,25,0.00,,,0.00,914.0,meteohub,2013-06-01 19:11:00,
2013-06-01 12:16:00,89.1,48.7,29.99,SW,230,0.0,7.0,25,0.00,,,0.00,923.0,meteohub,2013-06-01 19:16:00,
2013-06-01 12:21:00,89.2,49.8,29.99,SW,228,0.0,7.0,26,0.00,,,0.00,930.0,meteohub,2013-06-01 19:21:00,
2013-06-01 12:27:00,90.3,49.6,29.99,SW,215,1.0,4.0,25,0.00,,,0.00,932.0,meteohub,2013-06-01 19:27:00,
2013-06-01 12:32:00,90.9,49.1,29.99,SSW,209,0.0,5.0,24,0.00,,,0.00,935.0,meteohub,2013-06-01 19:32:00,
2013-06-01 12:37:00,91.2,48.2,29.99,ENE,71,0.0,5.0,23,0.00,,,0.00,944.0,meteohub,2013-06-01 19:37:00,
2013-06-01 12:42:00,90.9,49.1,29.99,South,184,0.0,5.0,24,0.00,,,0.00,942.0,meteohub,2013-06-01 19:42:00,
2013-06-01 12:47:00,91.0,49.3,29.98,ESE,103,0.0,3.0,24,0.00,,,0.00,944.0,meteohub,2013-06-01 19:47:00,
2013-06-01 12:52:00,91.2,49.5,29.98,WSW,244,5.0,5.0,24,0.00,,,0.00,947.0,meteohub,2013-06-01 19:52:00,
2013-06-01 12:57:00,91.8,49.8,29.98,WNW,284,0.0,6.0,24,0.00,,,0.00,949.0,meteohub,2013-06-01 19:57:00,
2013-06-01 13:02:00,91.4,48.4,29.98,NE,36,2.0,6.0,23,0.00,,,0.00,947.0,meteohub,2013-06-01 20:02:00,
2013-06-01 13:07:00,91.2,49.5,29.98,WSW,239,2.0,6.0,24,0.00,,,0.00,949.0,meteohub,2013-06-01 20:07:00,
2013-06-01 13:12:00,92.8,48.4,29.98,WSW,243,0.0,5.0,22,0.00,,,0.00,953.0,meteohub,2013-06-01 20:12:00,
2013-06-01 13:17:00,93.0,48.6,29.97,SSE,158,0.0,5.0,22,0.00,,,0.00,951.0,meteohub,2013-06-01 20:17:00,
2013-06-01 13:22:00,93.7,50.4,29.97,WNW,288,1.0,5.0,23,0.00,,,0.00,951.0,meteohub,2013-06-01 20:22:00,
2013-06-01 13:27:00,94.1,48.2,29.97,SW,219,0.0,4.0,21,0.00,,,0.00,947.0,meteohub,2013-06-01 20:27:00,
2013-06-01 13:32:00,94.5,49.8,29.97,WSW,238,0.0,4.0,22,0.00,,,0.00,953.0,meteohub,2013-06-01 20:32:00,
2013-06-01 13:37:00,94.5,48.6,29.97,ENE,78,3.0,3.0,21,0.00,,,0.00,951.0,meteohub,2013-06-01 20:37:00,
2013-06-01 13:42:00,93.6,48.9,29.97,East,96,1.0,3.0,22,0.00,,,0.00,949.0,meteohub,2013-06-01 20:42:00,
2013-06-01 13:47:00,93.6,48.9,29.97,East,83,1.0,5.0,22,0.00,,,0.00,946.0,meteohub,2013-06-01 20:47:00,
2013-06-01 13:52:00,93.9,49.3,29.96,SSE,152,1.0,5.0,22,0.00,,,0.00,942.0,meteohub,2013-06-01 20:52:00,
2013-06-01 13:57:00,93.6,48.9,29.96,ENE,72,0.0,4.0,22,0.00,,,0.00,940.0,meteohub,2013-06-01 20:57:00,
2013-06-01 14:02:00,94.5,49.8,29.96,SW,223,3.0,4.0,22,0.00,,,0.00,939.0,meteohub,2013-06-01 21:02:00,
2013-06-01 14:07:00,94.6,48.6,29.96,SW,225,5.0,7.0,21,0.00,,,0.00,937.0,meteohub,2013-06-01 21:07:00,
2013-06-01 14:12:00,94.5,48.6,29.96,South,179,1.0,7.0,21,0.00,,,0.00,960.0,meteohub,2013-06-01 21:12:00,
2013-06-01 14:17:00,94.8,48.7,29.96,SSW,192,0.0,7.0,21,0.00,,,0.00,967.0,meteohub,2013-06-01 21:17:00,
2013-06-01 14:22:00,94.8,47.5,29.96,SW,232,2.0,7.0,20,0.00,,,0.00,942.0,meteohub,2013-06-01 21:22:00,
2013-06-01 14:27:00,94.8,47.5,29.95,SW,225,3.0,7.0,20,0.00,,,0.00,919.0,meteohub,2013-06-01 21:27:00,
2013-06-01 14:32:00,94.5,47.1,29.95,East,92,3.0,9.0,20,0.00,,,0.00,912.0,meteohub,2013-06-01 21:32:00,
2013-06-01 14:37:00,94.6,47.3,29.95,SSW,211,7.0,9.0,20,0.00,,,0.00,905.0,meteohub,2013-06-01 21:37:00,
2013-06-01 14:42:00,95.5,48.0,29.95,WSW,248,4.0,8.0,20,0.00,,,0.00,916.0,meteohub,2013-06-01 21:42:00,
2013-06-01 14:47:00,96.3,45.9,29.95,West,265,3.0,8.0,18,0.00,,,0.00,914.0,meteohub,2013-06-01 21:47:00,
2013-06-01 14:52:00,95.9,45.5,29.94,SW,234,7.0,8.0,18,0.00,,,0.00,914.0,meteohub,2013-06-01 21:52:00,
2013-06-01 14:57:00,95.9,46.9,29.94,SW,226,6.0,9.0,19,0.00,,,0.00,905.0,meteohub,2013-06-01 21:57:00,
2013-06-01 15:03:00,96.6,46.2,29.94,SW,229,7.0,9.0,18,0.00,,,0.00,944.0,meteohub,2013-06-01 22:03:00,
2013-06-01 15:08:00,96.6,47.7,29.94,WSW,246,6.0,9.0,19,0.00,,,0.00,707.0,meteohub,2013-06-01 22:08:00,
2013-06-01 15:13:00,95.5,45.3,29.94,WSW,246,2.0,9.0,18,0.00,,,0.00,823.0,meteohub,2013-06-01 22:13:00,
2013-06-01 15:18:00,95.2,45.0,29.94,SW,223,9.0,9.0,18,0.00,,,0.00,888.0,meteohub,2013-06-01 22:18:00,
2013-06-01 15:23:00,94.6,44.6,29.93,SW,234,6.0,9.0,18,0.00,,,0.00,958.0,meteohub,2013-06-01 22:23:00,
2013-06-01 15:28:00,94.8,46.2,29.93,SSE,165,1.0,11.0,19,0.00,,,0.00,919.0,meteohub,2013-06-01 22:28:00,
2013-06-01 15:33:00,94.6,44.6,29.93,SW,222,1.0,11.0,18,0.00,,,0.00,770.0,meteohub,2013-06-01 22:33:00,
2013-06-01 15:38:00,94.6,44.6,29.93,West,271,2.0,12.0,18,0.00,,,0.00,443.0,meteohub,2013-06-01 22:38:00,
2013-06-01 15:44:00,93.9,45.3,29.93,WSW,241,9.0,12.0,19,0.00,,,0.00,225.0,meteohub,2013-06-01 22:44:00,
2013-06-01 15:49:00,93.0,46.0,29.93,WNW,302,4.0,10.0,20,0.00,,,0.00,911.0,meteohub,2013-06-01 22:49:00,
2013-06-01 15:55:00,93.9,45.3,29.92,West,267,7.0,10.0,19,0.00,,,0.00,721.0,meteohub,2013-06-01 22:55:00,
2013-06-01 16:00:00,94.3,45.7,29.92,WSW,240,5.0,10.0,19,0.00,,,0.00,881.0,meteohub,2013-06-01 23:00:00,
2013-06-01 16:05:00,95.4,46.6,29.92,SW,214,4.0,13.0,19,0.00,,,0.00,763.0,meteohub,2013-06-01 23:05:00,
2013-06-01 16:10:00,95.2,45.0,29.92,SSW,209,3.0,9.0,18,0.00,,,0.00,508.0,meteohub,2013-06-01 23:10:00,
2013-06-01 16:15:00,95.2,46.4,29.92,WSW,242,3.0,9.0,19,0.00,,,0.00,837.0,meteohub,2013-06-01 23:15:00,
2013-06-01 16:20:00,95.9,45.5,29.92,SW,223,0.0,9.0,18,0.00,,,0.00,854.0,meteohub,2013-06-01 23:20:00,
2013-06-01 16:25:00,97.2,46.6,29.91,WSW,248,2.0,9.0,18,0.00,,,0.00,814.0,meteohub,2013-06-01 23:25:00,
2013-06-01 16:30:00,97.3,45.3,29.91,SW,215,5.0,7.0,17,0.00,,,0.00,671.0,meteohub,2013-06-01 23:30:00,
2013-06-01 16:35:00,97.0,45.0,29.91,West,261,1.0,7.0,17,0.00,,,0.00,642.0,meteohub,2013-06-01 23:35:00,
2013-06-01 16:41:00,96.6,44.6,29.91,SW,225,0.0,7.0,17,0.00,,,0.00,649.0,meteohub,2013-06-01 23:41:00,
2013-06-01 16:46:00,96.3,44.4,29.91,SW,234,4.0,6.0,17,0.00,,,0.00,570.0,meteohub,2013-06-01 23:46:00,
2013-06-01 16:51:00,96.1,45.7,29.91,West,259,2.0,7.0,18,0.00,,,0.00,534.0,meteohub,2013-06-01 23:51:00,
2013-06-01 16:56:00,95.4,45.1,29.91,WNW,294,1.0,8.0,18,0.00,,,0.00,260.0,meteohub,2013-06-01 23:56:00,
2013-06-01 17:01:00,94.8,44.8,29.91,WSW,243,6.0,8.0,18,0.00,,,0.00,401.0,meteohub,2013-06-02 00:01:00,
2013-06-01 17:06:00,94.1,45.5,29.90,SSW,210,4.0,9.0,19,0.00,,,0.00,227.0,meteohub,2013-06-02 00:06:00,
2013-06-01 17:11:00,93.2,44.8,29.90,West,277,1.0,9.0,19,0.00,,,0.00,267.0,meteohub,2013-06-02 00:11:00,
2013-06-01 17:16:00,92.8,45.9,29.90,WSW,246,4.0,8.0,20,0.00,,,0.00,285.0,meteohub,2013-06-02 00:16:00,
2013-06-01 17:21:00,92.5,44.2,29.90,SW,230,6.0,7.0,19,0.00,,,0.00,288.0,meteohub,2013-06-02 00:21:00,
2013-06-01 17:27:00,92.3,44.1,29.90,WSW,242,5.0,8.0,19,0.00,,,0.00,707.0,meteohub,2013-06-02 00:27:00,
2013-06-01 17:32:00,92.7,45.7,29.90,South,182,1.0,9.0,20,0.00,,,0.00,615.0,meteohub,2013-06-02 00:32:00,
2013-06-01 17:37:00,92.8,44.6,29.90,SSW,208,2.0,10.0,19,0.00,,,0.00,260.0,meteohub,2013-06-02 00:37:00,
2013-06-01 17:42:00,92.5,44.2,29.90,SW,236,3.0,10.0,19,0.00,,,0.00,267.0,meteohub,2013-06-02 00:42:00,
2013-06-01 17:47:00,91.9,45.1,29.90,SW,217,5.0,8.0,20,0.00,,,0.00,364.0,meteohub,2013-06-02 00:47:00,
2013-06-01 17:52:00,91.8,46.2,29.90,WNW,298,3.0,10.0,21,0.00,,,0.00,461.0,meteohub,2013-06-02 00:52:00,
2013-06-01 17:57:00,92.1,45.3,29.89,WSW,257,5.0,10.0,20,0.00,,,0.00,485.0,meteohub,2013-06-02 00:57:00,
2013-06-01 18:02:00,92.3,45.5,29.89,SW,221,8.0,10.0,20,0.00,,,0.00,302.0,meteohub,2013-06-02 01:02:00,
2013-06-01 18:07:00,91.6,44.8,29.89,WSW,252,2.0,11.0,20,0.00,,,0.00,105.0,meteohub,2013-06-02 01:07:00,
2013-06-01 18:12:00,90.9,45.5,29.89,SSW,197,3.0,11.0,21,0.00,,,0.00,102.0,meteohub,2013-06-02 01:12:00,
2013-06-01 18:17:00,90.0,47.1,29.89,SW,232,2.0,11.0,23,0.00,,,0.00,211.0,meteohub,2013-06-02 01:17:00,
2013-06-01 18:22:00,89.8,48.2,29.89,SSW,209,6.0,10.0,24,0.00,,,0.00,253.0,meteohub,2013-06-02 01:22:00,
2013-06-01 18:27:00,89.4,46.8,29.89,South,176,1.0,10.0,23,0.00,,,0.00,237.0,meteohub,2013-06-02 01:27:00,
2013-06-01 18:32:00,89.6,46.9,29.89,SW,232,8.0,10.0,23,0.00,,,0.00,315.0,meteohub,2013-06-02 01:32:00,
2013-06-01 18:37:00,89.6,48.0,29.89,WSW,237,2.0,9.0,24,0.00,,,0.00,230.0,meteohub,2013-06-02 01:37:00,
2013-06-01 18:42:00,89.8,48.2,29.89,SW,231,3.0,9.0,24,0.00,,,0.00,309.0,meteohub,2013-06-02 01:42:00,
2013-06-01 18:47:00,90.0,47.1,29.88,WSW,255,3.0,9.0,23,0.00,,,0.00,283.0,meteohub,2013-06-02 01:47:00,
2013-06-01 18:52:00,90.0,46.0,29.88,WSW,239,7.0,7.0,22,0.00,,,0.00,214.0,meteohub,2013-06-02 01:52:00,
2013-06-01 18:57:00,90.0,47.1,29.88,SW,218,7.0,8.0,23,0.00,,,0.00,105.0,meteohub,2013-06-02 01:57:00,
2013-06-01 19:02:00,89.2,46.6,29.88,SW,236,3.0,9.0,23,0.00,,,0.00,91.0,meteohub,2013-06-02 02:02:00,
2013-06-01 19:07:00,88.7,46.2,29.88,WSW,237,3.0,9.0,23,0.00,,,0.00,113.0,meteohub,2013-06-02 02:07:00,
2013-06-01 19:12:00,88.5,47.1,29.89,SW,224,2.0,9.0,24,0.00,,,0.00,234.0,meteohub,2013-06-02 02:12:00,
2013-06-01 19:17:00,88.9,46.2,29.88,WSW,242,4.0,6.0,23,0.00,,,0.00,206.0,meteohub,2013-06-02 02:17:00,
2013-06-01 19:22:00,88.9,48.6,29.88,SW,221,3.0,7.0,25,0.00,,,0.00,190.0,meteohub,2013-06-02 02:22:00,
2013-06-01 19:27:00,88.9,47.5,29.88,SSW,213,3.0,7.0,24,0.00,,,0.00,141.0,meteohub,2013-06-02 02:27:00,
2013-06-01 19:32:00,88.7,47.3,29.88,WSW,247,2.0,7.0,24,0.00,,,0.00,127.0,meteohub,2013-06-02 02:32:00,
2013-06-01 19:37:00,88.3,48.0,29.88,SW,236,2.0,7.0,25,0.00,,,0.00,47.0,meteohub,2013-06-02 02:37:00,
2013-06-01 19:42:00,88.0,47.8,29.88,WSW,238,5.0,7.0,25,0.00,,,0.00,39.0,meteohub,2013-06-02 02:42:00,
2013-06-01 19:47:00,87.4,48.4,29.88,West,273,3.0,6.0,26,0.00,,,0.00,33.0,meteohub,2013-06-02 02:47:00,
2013-06-01 19:52:00,86.7,48.7,29.88,WSW,246,1.0,6.0,27,0.00,,,0.00,26.0,meteohub,2013-06-02 02:52:00,
2013-06-01 19:57:00,86.2,49.3,29.88,SW,236,1.0,6.0,28,0.00,,,0.00,23.0,meteohub,2013-06-02 02:57:00,
2013-06-01 20:02:00,85.8,48.9,29.88,West,261,2.0,6.0,28,0.00,,,0.00,19.0,meteohub,2013-06-02 03:02:00,
2013-06-01 20:07:00,85.5,48.6,29.88,WNW,295,1.0,6.0,28,0.00,,,0.00,16.0,meteohub,2013-06-02 03:07:00,
2013-06-01 20:12:00,84.7,48.0,29.88,WNW,292,0.0,6.0,28,0.00,,,0.00,14.0,meteohub,2013-06-02 03:12:00,
2013-06-01 20:17:00,84.4,47.7,29.88,WSW,246,1.0,5.0,28,0.00,,,0.00,12.0,meteohub,2013-06-02 03:17:00,
2013-06-01 20:22:00,83.8,48.2,29.88,SW,225,3.0,5.0,29,0.00,,,0.00,9.0,meteohub,2013-06-02 03:22:00,
2013-06-01 20:27:00,83.1,47.7,29.88,SW,226,1.0,5.0,29,0.00,,,0.00,5.0,meteohub,2013-06-02 03:27:00,
2013-06-01 20:32:00,82.8,48.2,29.88,SW,221,0.0,5.0,30,0.00,,,0.00,0.0,meteohub,2013-06-02 03:32:00,
2013-06-01 20:37:00,82.4,48.7,29.88,SSW,213,4.0,5.0,31,0.00,,,0.00,0.0,meteohub,2013-06-02 03:37:00,
2013-06-01 20:42:00,81.7,48.0,29.88,SW,229,4.0,5.0,31,0.00,,,0.00,0.0,meteohub,2013-06-02 03:42:00,
2013-06-01 20:47:00,81.1,48.6,29.88,WSW,240,2.0,5.0,32,0.00,,,0.00,0.0,meteohub,2013-06-02 03:47:00,
2013-06-01 20:52:00,80.8,48.9,29.88,SW,217,0.0,5.0,33,0.00,,,0.00,0.0,meteohub,2013-06-02 03:52:00,
2013-06-01 20:57:00,80.4,48.7,29.88,SW,232,8.0,8.0,33,0.00,,,0.00,0.0,meteohub,2013-06-02 03:57:00,
2013-06-01 21:01:00,80.2,48.6,29.89,WSW,238,2.0,9.0,33,0.00,,,0.00,0.0,meteohub,2013-06-02 04:01:00,
2013-06-01 21:02:00,80.2,48.6,29.89,SSW,209,0.0,9.0,33,0.00,,,0.00,0.0,meteohub,2013-06-02 04:02:00,
2013-06-01 21:04:00,80.2,49.3,29.89,SSW,204,7.0,9.0,34,0.00,,,0.00,0.0,meteohub,2013-06-02 04:04:00,
2013-06-01 21:06:00,80.1,48.4,29.89,SW,227,2.0,9.0,33,0.00,,,0.00,0.0,meteohub,2013-06-02 04:06:00,
2013-06-01 21:11:00,79.7,48.9,29.89,SW,221,3.0,9.0,34,0.00,,,0.00,0.0,meteohub,2013-06-02 04:11:00,
2013-06-01 21:16:00,79.3,48.6,29.89,SW,221,0.0,7.0,34,0.00,,,0.00,0.0,meteohub,2013-06-02 04:16:00,
2013-06-01 21:22:00,79.2,49.1,29.89,WSW,242,1.0,5.0,35,0.00,,,0.00,0.0,meteohub,2013-06-02 04:22:00,
2013-06-01 21:27:00,78.8,48.9,29.89,SW,219,0.0,4.0,35,0.00,,,0.00,0.0,meteohub,2013-06-02 04:27:00,
2013-06-01 21:32:00,78.4,48.6,29.89,SW,225,1.0,4.0,35,0.00,,,0.00,0.0,meteohub,2013-06-02 04:32:00,
2013-06-01 21:37:00,78.3,48.4,29.90,SW,230,2.0,5.0,35,0.00,,,0.00,0.0,meteohub,2013-06-02 04:37:00,
2013-06-01 21:42:00,77.7,48.6,29.90,SW,234,1.0,5.0,36,0.00,,,0.00,0.0,meteohub,2013-06-02 04:42:00,
2013-06-01 21:47:00,77.4,48.4,29.90,SW,236,2.0,5.0,36,0.00,,,0.00,0.0,meteohub,2013-06-02 04:47:00,
2013-06-01 21:52:00,77.0,48.7,29.90,SW,232,1.0,5.0,37,0.00,,,0.00,0.0,meteohub,2013-06-02 04:52:00,
2013-06-01 21:57:00,76.6,48.4,29.90,SSW,213,2.0,5.0,37,0.00,,,0.00,0.0,meteohub,2013-06-02 04:57:00,
2013-06-01 22:02:00,76.3,48.0,29.90,WSW,244,0.0,4.0,37,0.00,,,0.00,0.0,meteohub,2013-06-02 05:02:00,
2013-06-01 22:07:00,75.9,48.6,29.90,West,263,3.0,4.0,38,0.00,,,0.00,0.0,meteohub,2013-06-02 05:07:00,
2013-06-01 22:12:00,75.7,48.4,29.90,SW,227,3.0,5.0,38,0.00,,,0.00,0.0,meteohub,2013-06-02 05:12:00,
2013-06-01 22:17:00,75.6,48.9,29.90,SW,229,3.0,6.0,39,0.00,,,0.00,0.0,meteohub,2013-06-02 05:17:00,
2013-06-01 22:22:00,75.0,48.4,29.90,SW,236,2.0,6.0,39,0.00,,,0.00,0.0,meteohub,2013-06-02 05:22:00,
2013-06-01 22:27:00,74.8,48.9,29.90,SW,236,2.0,6.0,40,0.00,,,0.00,0.0,meteohub,2013-06-02 05:27:00,
2013-06-01 22:32:00,74.5,48.6,29.90,WSW,248,4.0,5.0,40,0.00,,,0.00,0.0,meteohub,2013-06-02 05:32:00,
2013-06-01 22:37:00,74.1,48.9,29.90,SW,232,3.0,5.0,41,0.00,,,0.00,0.0,meteohub,2013-06-02 05:37:00,
2013-06-01 22:42:00,73.8,49.8,29.90,SW,233,1.0,5.0,43,0.00,,,0.00,0.0,meteohub,2013-06-02 05:42:00,
2013-06-01 22:47:00,73.2,50.0,29.90,SW,224,2.0,5.0,44,0.00,,,0.00,0.0,meteohub,2013-06-02 05:47:00,
2013-06-01 22:52:00,72.7,50.7,29.90,SW,235,1.0,5.0,46,0.00,,,0.00,0.0,meteohub,2013-06-02 05:52:00,
2013-06-01 22:57:00,72.0,50.7,29.90,SW,227,2.0,4.0,47,0.00,,,0.00,0.0,meteohub,2013-06-02 05:57:00,
2013-06-01 23:02:00,71.2,50.5,29.89,SW,236,1.0,4.0,48,0.00,,,0.00,0.0,meteohub,2013-06-02 06:02:00,
2013-06-01 23:07:00,70.5,50.4,29.89,SW,223,2.0,4.0,49,0.00,,,0.00,0.0,meteohub,2013-06-02 06:07:00,
2013-06-01 23:12:00,70.2,50.7,29.90,SW,225,2.0,4.0,50,0.00,,,0.00,0.0,meteohub,2013-06-02 06:12:00,
2013-06-01 23:17:00,69.6,50.2,29.89,WSW,238,2.0,5.0,50,0.00,,,0.00,0.0,meteohub,2013-06-02 06:17:00,
2013-06-01 23:22:00,69.3,50.4,29.89,SW,223,6.0,6.0,51,0.00,,,0.00,0.0,meteohub,2013-06-02 06:22:00,
2013-06-01 23:27:00,68.7,50.4,29.89,SW,222,2.0,6.0,52,0.00,,,0.00,0.0,meteohub,2013-06-02 06:27:00,
2013-06-01 23:32:00,68.2,49.8,29.89,SW,231,3.0,7.0,52,0.00,,,0.00,0.0,meteohub,2013-06-02 06:32:00,
2013-06-01 23:37:00,67.8,50.0,29.89,SW,231,5.0,7.0,53,0.00,,,0.00,0.0,meteohub,2013-06-02 06:37:00,
2013-06-01 23:42:00,67.5,50.2,29.89,WSW,252,8.0,8.0,54,0.00,,,0.00,0.0,meteohub,2013-06-02 06:42:00,
2013-06-01 23:47:00,66.9,50.2,29.89,WSW,242,3.0,8.0,55,0.00,,,0.00,0.0,meteohub,2013-06-02 06:47:00,
2013-06-01 23:52:00,66.6,50.4,29.89,West,273,1.0,8.0,56,0.00,,,0.00,0.0,meteohub,2013-06-02 06:52:00,
2013-06-01 23:57:00,66.0,50.4,29.89,SSW,209,2.0,8.0,57,0.00,,,0.00,0.0,meteohub,2013-06-02 06:57:00,